Time;durP1;ratioP1;P1;durP2;ratioP2;P2;SDS_P1;SDS_P2;PMS_P1;PMS_P2;Temp;Humidity;BMP_temperature;BMP_pressure;BME280_temperature;BME280_humidity;BME280_pressure;Samples;Min_cycle;Max_cycle;Signal;HPM_P1;HPM_P2
2021/09/16 00:01:42;;;;;;;5.65;1.58;;;;;;;;;;4773386;30;20565;-85
2021/09/16 00:04:07;;;;;;;2.58;1.38;;;;;;;;;;4776947;29;20039;-84
2021/09/16 00:06:33;;;;;;;5.50;1.60;;;;;;;;;;4773206;30;20092;-85
2021/09/16 00:08:58;;;;;;;3.63;1.33;;;;;;;;;;4778121;30;20054;-83
2021/09/16 00:11:24;;;;;;;4.10;1.70;;;;;;;;;;4790872;30;20031;-83
2021/09/16 00:13:49;;;;;;;2.95;1.40;;;;;;;;;;4760621;30;20046;-85
2021/09/16 00:16:15;;;;;;;4.53;2.10;;;;;;;;;;4791767;29;20267;-83
2021/09/16 00:18:40;;;;;;;4.40;1.85;;;;;;;;;;4795554;29;20039;-83
2021/09/16 00:21:06;;;;;;;5.22;2.50;;;;;;;;;;4788065;29;20551;-84
2021/09/16 00:23:32;;;;;;;5.72;2.83;;;;;;;;;;4790364;29;20110;-84
2021/09/16 00:25:57;;;;;;;8.77;3.72;;;;;;;;;;4789954;30;20043;-82
2021/09/16 00:28:23;;;;;;;4.35;2.78;;;;;;;;;;4789377;30;20049;-83
2021/09/16 00:30:48;;;;;;;5.90;3.00;;;;;;;;;;4786965;29;20416;-85
2021/09/16 00:33:14;;;;;;;7.55;2.80;;;;;;;;;;4760221;30;20122;-85
2021/09/16 00:35:39;;;;;;;5.90;2.85;;;;;;;;;;4748983;29;20119;-85
2021/09/16 00:38:05;;;;;;;6.25;2.90;;;;;;;;;;4774303;30;20688;-85
2021/09/16 00:40:30;;;;;;;5.70;2.67;;;;;;;;;;4764678;29;20483;-85
2021/09/16 00:42:56;;;;;;;4.43;2.55;;;;;;;;;;4777858;29;20047;-85
2021/09/16 00:45:21;;;;;;;3.80;2.13;;;;;;;;;;4757026;30;20047;-83
2021/09/16 00:47:49;;;;;;;6.28;2.15;;;;;;;;;;4776890;29;20046;-84
2021/09/16 00:50:20;;;;;;;4.38;2.22;;;;;;;;;;4789373;29;20063;-83
2021/09/16 00:52:46;;;;;;;5.68;2.30;;;;;;;;;;4794986;29;20282;-83
2021/09/16 00:55:12;;;;;;;5.90;2.30;;;;;;;;;;4789899;30;20091;-84
2021/09/16 00:57:39;;;;;;;5.28;2.40;;;;;;;;;;4778102;29;20077;-83
2021/09/16 01:00:08;;;;;;;4.47;2.00;;;;;;;;;;4768367;30;20046;-85
2021/09/16 01:02:33;;;;;;;4.25;2.15;;;;;;;;;;4777678;30;20400;-85
2021/09/16 01:04:59;;;;;;;6.05;2.28;;;;;;;;;;4789698;29;20076;-83
2021/09/16 01:07:25;;;;;;;4.97;2.40;;;;;;;;;;4774730;30;20054;-84
2021/09/16 01:09:50;;;;;;;4.07;2.20;;;;;;;;;;4776783;29;20043;-84
2021/09/16 01:12:16;;;;;;;4.88;2.30;;;;;;;;;;4796259;29;20027;-85
2021/09/16 01:14:41;;;;;;;5.28;2.55;;;;;;;;;;4787537;29;20043;-86
2021/09/16 01:17:08;;;;;;;7.00;2.30;;;;;;;;;;4777675;30;20039;-85
2021/09/16 01:19:33;;;;;;;4.78;2.33;;;;;;;;;;4774227;30;20503;-85
2021/09/16 01:21:59;;;;;;;5.95;2.45;;;;;;;;;;4759261;30;20039;-84
2021/09/16 01:24:25;;;;;;;4.75;2.45;;;;;;;;;;4764212;30;20047;-83
2021/09/16 01:26:50;;;;;;;5.47;3.28;;;;;;;;;;4790847;30;20050;-83
2021/09/16 01:29:16;;;;;;;7.30;2.78;;;;;;;;;;4774380;29;20127;-85
2021/09/16 01:31:44;;;;;;;4.82;2.58;;;;;;;;;;4776556;30;20116;-85
2021/09/16 01:34:11;;;;;;;5.47;3.30;;;;;;;;;;4775235;30;20035;-83
2021/09/16 01:36:38;;;;;;;4.78;2.60;;;;;;;;;;4789272;30;20061;-84
2021/09/16 01:39:06;;;;;;;5.50;2.47;;;;;;;;;;4778278;29;20035;-84
2021/09/16 01:41:31;;;;;;;7.88;3.03;;;;;;;;;;4775037;30;20117;-83
2021/09/16 01:43:57;;;;;;;5.82;2.90;;;;;;;;;;4760045;29;20134;-83
2021/09/16 01:46:22;;;;;;;6.50;2.70;;;;;;;;;;4778662;29;20038;-85
2021/09/16 01:48:48;;;;;;;7.78;3.20;;;;;;;;;;4754903;30;20412;-85
2021/09/16 01:51:13;;;;;;;5.75;3.47;;;;;;;;;;4789622;29;20484;-85
2021/09/16 01:53:39;;;;;;;6.45;2.95;;;;;;;;;;4789412;30;20046;-83
2021/09/16 01:56:04;;;;;;;6.38;3.05;;;;;;;;;;4760640;30;20067;-86
2021/09/16 01:58:30;;;;;;;5.57;3.60;;;;;;;;;;4773438;30;20073;-82
2021/09/16 02:00:57;;;;;;;5.88;3.63;;;;;;;;;;4770591;30;20108;-83
2021/09/16 02:03:22;;;;;;;7.18;3.47;;;;;;;;;;4774738;30;20039;-83
2021/09/16 02:05:48;;;;;;;7.32;3.60;;;;;;;;;;4793042;29;20035;-85
2021/09/16 02:08:13;;;;;;;7.03;2.95;;;;;;;;;;4764376;30;20502;-85
2021/09/16 02:10:39;;;;;;;6.10;3.30;;;;;;;;;;4765087;30;20561;-83
2021/09/16 02:13:04;;;;;;;5.80;3.42;;;;;;;;;;4773394;30;20510;-86
2021/09/16 02:15:29;;;;;;;6.82;2.90;;;;;;;;;;4773574;30;20767;-83
2021/09/16 02:17:55;;;;;;;5.32;3.10;;;;;;;;;;4791114;29;20499;-83
2021/09/16 02:20:20;;;;;;;5.72;3.40;;;;;;;;;;4772909;30;20061;-83
2021/09/16 02:22:46;;;;;;;7.28;3.00;;;;;;;;;;4790732;29;20495;-83
2021/09/16 02:25:11;;;;;;;6.97;3.28;;;;;;;;;;4771173;30;20485;-82
2021/09/16 02:27:37;;;;;;;5.38;3.20;;;;;;;;;;4774297;30;20035;-83
2021/09/16 02:30:04;;;;;;;6.97;3.22;;;;;;;;;;4772300;30;20055;-85
2021/09/16 02:32:29;;;;;;;6.18;3.35;;;;;;;;;;4759499;29;20404;-85
2021/09/16 02:34:55;;;;;;;7.22;3.20;;;;;;;;;;4764314;29;20043;-83
2021/09/16 02:37:21;;;;;;;5.65;3.47;;;;;;;;;;4775862;30;20031;-83
2021/09/16 02:39:47;;;;;;;7.43;3.30;;;;;;;;;;4792180;29;20392;-85
2021/09/16 02:42:12;;;;;;;5.05;3.00;;;;;;;;;;4787779;30;20042;-83
2021/09/16 02:44:37;;;;;;;6.30;3.10;;;;;;;;;;4757813;30;20059;-84
2021/09/16 02:47:03;;;;;;;8.82;3.50;;;;;;;;;;4786101;30;20122;-83
2021/09/16 02:49:28;;;;;;;5.03;3.40;;;;;;;;;;4771874;30;20080;-82
2021/09/16 02:51:54;;;;;;;4.68;3.20;;;;;;;;;;4791614;29;20092;-84
2021/09/16 02:54:19;;;;;;;6.45;3.38;;;;;;;;;;4758046;30;20027;-85
2021/09/16 02:56:45;;;;;;;5.82;3.50;;;;;;;;;;4769998;30;20039;-84
2021/09/16 02:59:10;;;;;;;4.82;3.20;;;;;;;;;;4786977;30;20427;-84
2021/09/16 03:01:35;;;;;;;5.20;3.10;;;;;;;;;;4779474;29;20070;-85
2021/09/16 03:04:01;;;;;;;6.40;3.40;;;;;;;;;;4771295;30;20492;-85
2021/09/16 03:06:27;;;;;;;4.57;3.30;;;;;;;;;;4772419;29;20042;-83
2021/09/16 03:08:52;;;;;;;8.18;3.80;;;;;;;;;;4774711;30;20464;-85
2021/09/16 03:11:18;;;;;;;6.93;3.30;;;;;;;;;;4772481;30;20508;-85
2021/09/16 03:13:46;;;;;;;7.47;3.10;;;;;;;;;;4773598;30;20039;-85
2021/09/16 03:16:11;;;;;;;5.50;3.60;;;;;;;;;;4763201;30;20487;-85
2021/09/16 03:18:37;;;;;;;5.90;3.38;;;;;;;;;;4783591;30;20027;-84
2021/09/16 03:21:03;;;;;;;6.28;3.30;;;;;;;;;;4782175;29;20043;-82
2021/09/16 03:23:28;;;;;;;6.03;3.10;;;;;;;;;;4786672;29;20118;-85
2021/09/16 03:25:53;;;;;;;4.88;3.10;;;;;;;;;;4777669;30;20479;-85
2021/09/16 03:28:19;;;;;;;6.05;3.03;;;;;;;;;;4778045;30;20036;-83
2021/09/16 03:30:44;;;;;;;5.65;2.75;;;;;;;;;;4793073;30;20121;-82
2021/09/16 03:33:10;;;;;;;7.50;2.80;;;;;;;;;;4793048;29;20045;-82
2021/09/16 03:35:35;;;;;;;6.03;3.10;;;;;;;;;;4780964;30;20039;-83
2021/09/16 03:38:01;;;;;;;6.18;3.50;;;;;;;;;;4785524;29;20115;-86
2021/09/16 03:40:26;;;;;;;5.88;3.13;;;;;;;;;;4763441;30;20043;-85
2021/09/16 03:42:52;;;;;;;5.43;3.40;;;;;;;;;;4782509;30;20043;-85
2021/09/16 03:45:18;;;;;;;6.20;3.20;;;;;;;;;;4782320;30;20051;-83
2021/09/16 03:47:43;;;;;;;9.80;3.60;;;;;;;;;;4776739;30;20040;-85
2021/09/16 03:50:10;;;;;;;6.00;3.30;;;;;;;;;;4802948;29;20042;-85
2021/09/16 03:52:36;;;;;;;9.00;3.20;;;;;;;;;;4787652;29;20038;-83
2021/09/16 03:55:01;;;;;;;5.28;2.95;;;;;;;;;;4794483;29;20059;-83
2021/09/16 03:57:27;;;;;;;5.65;3.00;;;;;;;;;;4793734;30;20427;-85
2021/09/16 03:59:52;;;;;;;5.65;3.03;;;;;;;;;;4756523;30;20047;-83
2021/09/16 04:02:17;;;;;;;5.93;3.05;;;;;;;;;;4777378;30;20042;-85
2021/09/16 04:04:43;;;;;;;6.32;2.60;;;;;;;;;;4791017;29;20054;-84
2021/09/16 04:07:08;;;;;;;6.22;3.00;;;;;;;;;;4777804;30;20109;-84
2021/09/16 04:09:34;;;;;;;6.25;3.00;;;;;;;;;;4745236;30;20101;-85
2021/09/16 04:11:59;;;;;;;7.30;3.53;;;;;;;;;;4781451;30;20395;-85
2021/09/16 04:14:25;;;;;;;6.60;3.20;;;;;;;;;;4770470;30;20046;-83
2021/09/16 04:16:51;;;;;;;6.47;2.65;;;;;;;;;;4777555;30;20035;-85
2021/09/16 04:19:16;;;;;;;5.40;2.83;;;;;;;;;;4791827;29;20039;-83
2021/09/16 04:21:42;;;;;;;6.15;2.63;;;;;;;;;;4767775;30;20043;-84
2021/09/16 04:24:09;;;;;;;5.93;2.60;;;;;;;;;;4782670;29;20495;-83
2021/09/16 04:26:35;;;;;;;7.05;3.22;;;;;;;;;;4792152;29;20030;-84
2021/09/16 04:29:02;;;;;;;7.25;3.47;;;;;;;;;;4774796;30;20043;-85
2021/09/16 04:31:27;;;;;;;5.70;2.90;;;;;;;;;;4760885;30;20810;-84
2021/09/16 04:33:53;;;;;;;5.90;2.72;;;;;;;;;;4751156;30;20047;-84
2021/09/16 04:36:18;;;;;;;5.47;3.10;;;;;;;;;;4777255;30;20043;-84
2021/09/16 04:38:44;;;;;;;6.20;3.10;;;;;;;;;;4754668;30;20046;-85
2021/09/16 04:41:09;;;;;;;6.78;2.97;;;;;;;;;;4760821;30;20040;-85
2021/09/16 04:43:34;;;;;;;5.80;3.15;;;;;;;;;;4760139;29;20051;-85
2021/09/16 04:46:00;;;;;;;4.75;3.05;;;;;;;;;;4774467;30;20044;-85
2021/09/16 04:48:25;;;;;;;7.53;3.03;;;;;;;;;;4756329;30;20046;-83
2021/09/16 04:50:50;;;;;;;6.68;3.08;;;;;;;;;;4774369;30;20043;-85
2021/09/16 04:53:16;;;;;;;6.30;3.40;;;;;;;;;;4796062;29;20188;-85
2021/09/16 04:55:41;;;;;;;5.65;3.00;;;;;;;;;;4767794;30;20067;-83
2021/09/16 04:58:07;;;;;;;6.00;3.15;;;;;;;;;;4775190;30;20107;-82
2021/09/16 05:00:32;;;;;;;6.47;3.08;;;;;;;;;;4774095;30;20035;-85
2021/09/16 05:02:57;;;;;;;7.15;3.85;;;;;;;;;;4774407;30;20035;-85
2021/09/16 05:05:23;;;;;;;5.85;3.50;;;;;;;;;;4759057;30;20042;-85
2021/09/16 05:07:49;;;;;;;8.68;3.42;;;;;;;;;;4755071;30;20069;-82
2021/09/16 05:10:14;;;;;;;7.28;3.40;;;;;;;;;;4789840;29;20035;-84
2021/09/16 05:12:40;;;;;;;6.47;3.58;;;;;;;;;;4758331;30;20135;-81
2021/09/16 05:15:06;;;;;;;8.73;3.45;;;;;;;;;;4747339;29;20046;-82
2021/09/16 05:17:31;;;;;;;5.97;3.08;;;;;;;;;;4786974;30;20452;-85
2021/09/16 05:19:57;;;;;;;7.63;3.40;;;;;;;;;;4775769;29;20129;-82
2021/09/16 05:22:23;;;;;;;5.03;3.20;;;;;;;;;;4776323;30;20039;-83
2021/09/16 05:24:48;;;;;;;5.95;3.30;;;;;;;;;;4742685;30;20067;-83
2021/09/16 05:27:19;;;;;;;6.63;3.40;;;;;;;;;;4758100;30;20684;-85
2021/09/16 05:29:45;;;;;;;8.60;3.10;;;;;;;;;;4748772;30;20039;-83
2021/09/16 05:32:10;;;;;;;6.32;3.20;;;;;;;;;;4788533;30;20039;-85
2021/09/16 05:34:36;;;;;;;5.70;3.15;;;;;;;;;;4760749;30;20062;-85
2021/09/16 05:37:01;;;;;;;6.30;3.45;;;;;;;;;;4750683;30;20035;-83
2021/09/16 05:39:27;;;;;;;6.25;3.40;;;;;;;;;;4769976;30;20035;-83
2021/09/16 05:41:53;;;;;;;5.53;3.40;;;;;;;;;;4773947;30;20031;-85
2021/09/16 05:44:18;;;;;;;6.22;3.47;;;;;;;;;;4751820;30;20066;-83
2021/09/16 05:46:44;;;;;;;6.88;3.22;;;;;;;;;;4758357;30;20039;-85
2021/09/16 05:49:09;;;;;;;6.75;3.55;;;;;;;;;;4759722;30;20035;-83
2021/09/16 05:51:35;;;;;;;5.93;3.63;;;;;;;;;;4770342;30;20115;-85
2021/09/16 05:54:00;;;;;;;4.60;2.85;;;;;;;;;;4770939;30;20036;-83
2021/09/16 05:56:26;;;;;;;6.38;3.40;;;;;;;;;;4791580;29;20059;-82
2021/09/16 05:58:52;;;;;;;4.88;3.13;;;;;;;;;;4790056;29;20084;-84
2021/09/16 06:01:17;;;;;;;6.32;3.60;;;;;;;;;;4773162;30;20092;-85
2021/09/16 06:03:43;;;;;;;6.70;3.33;;;;;;;;;;4783545;29;20039;-83
2021/09/16 06:06:08;;;;;;;8.57;3.63;;;;;;;;;;4759109;29;20035;-83
2021/09/16 06:08:34;;;;;;;6.72;3.33;;;;;;;;;;4791579;29;20548;-85
2021/09/16 06:11:00;;;;;;;6.20;3.15;;;;;;;;;;4778997;29;20031;-85
2021/09/16 06:13:25;;;;;;;5.57;3.25;;;;;;;;;;4774230;30;20038;-84
2021/09/16 06:15:51;;;;;;;7.57;3.55;;;;;;;;;;4750652;29;20035;-82
2021/09/16 06:18:16;;;;;;;6.30;3.28;;;;;;;;;;4778149;30;20096;-85
2021/09/16 06:20:42;;;;;;;5.38;3.17;;;;;;;;;;4782035;30;20044;-83
2021/09/16 06:23:07;;;;;;;6.88;3.75;;;;;;;;;;4788293;30;20046;-84
2021/09/16 06:25:33;;;;;;;6.45;3.30;;;;;;;;;;4758632;30;20430;-82
2021/09/16 06:27:59;;;;;;;7.47;4.55;;;;;;;;;;4785463;29;20043;-83
2021/09/16 06:30:24;;;;;;;6.25;4.07;;;;;;;;;;4785104;29;20423;-82
2021/09/16 06:32:50;;;;;;;8.50;3.85;;;;;;;;;;4803743;29;20027;-82
2021/09/16 06:35:16;;;;;;;6.70;3.92;;;;;;;;;;4788932;30;20039;-85
2021/09/16 06:37:42;;;;;;;8.40;3.88;;;;;;;;;;4772384;30;20100;-83
2021/09/16 06:40:09;;;;;;;6.65;3.65;;;;;;;;;;4789307;29;20040;-85
2021/09/16 06:42:36;;;;;;;6.78;4.00;;;;;;;;;;4769878;30;20047;-83
2021/09/16 06:45:01;;;;;;;6.35;3.83;;;;;;;;;;4791329;29;20038;-82
2021/09/16 06:47:27;;;;;;;9.85;4.22;;;;;;;;;;4788974;29;20032;-84
2021/09/16 06:49:53;;;;;;;9.52;4.35;;;;;;;;;;4766041;30;20031;-83
2021/09/16 06:52:22;;;;;;;8.48;4.32;;;;;;;;;;4786815;30;20035;-83
2021/09/16 06:54:51;;;;;;;8.48;4.32;;;;;;;;;;4783577;30;20468;-83
2021/09/16 06:57:18;;;;;;;8.75;4.30;;;;;;;;;;4756207;30;20046;-83
2021/09/16 06:59:43;;;;;;;7.45;4.45;;;;;;;;;;4757880;29;20042;-83
2021/09/16 07:02:12;;;;;;;9.82;4.35;;;;;;;;;;4777864;29;20035;-82
2021/09/16 07:04:38;;;;;;;8.60;4.50;;;;;;;;;;4759315;29;20038;-82
2021/09/16 07:07:05;;;;;;;8.43;4.97;;;;;;;;;;4780771;29;20049;-83
2021/09/16 07:09:31;;;;;;;7.05;4.70;;;;;;;;;;4753203;30;20544;-82
2021/09/16 07:11:57;;;;;;;8.60;4.50;;;;;;;;;;4772525;30;20130;-82
2021/09/16 07:14:24;;;;;;;7.13;4.40;;;;;;;;;;4761692;30;20754;-82
2021/09/16 07:16:50;;;;;;;5.63;3.90;;;;;;;;;;4770704;30;20067;-85
2021/09/16 07:19:16;;;;;;;7.82;3.70;;;;;;;;;;4756934;30;20062;-84
2021/09/16 07:21:41;;;;;;;8.32;4.10;;;;;;;;;;4775049;30;20132;-82
2021/09/16 07:24:08;;;;;;;8.25;3.60;;;;;;;;;;4752300;29;20047;-82
2021/09/16 07:26:34;;;;;;;6.85;3.28;;;;;;;;;;4767852;30;20039;-82
2021/09/16 07:29:00;;;;;;;7.22;3.20;;;;;;;;;;4757889;30;20035;-81
2021/09/16 07:31:27;;;;;;;6.40;3.10;;;;;;;;;;4786114;29;20042;-83
2021/09/16 07:33:52;;;;;;;5.78;2.85;;;;;;;;;;4763781;30;20039;-84
2021/09/16 07:36:18;;;;;;;5.35;2.25;;;;;;;;;;4746319;30;20777;-82
2021/09/16 07:38:43;;;;;;;5.28;2.40;;;;;;;;;;4789390;29;20065;-82
2021/09/16 07:41:09;;;;;;;6.10;2.47;;;;;;;;;;4788031;29;20046;-82
2021/09/16 07:43:35;;;;;;;6.38;2.10;;;;;;;;;;4770158;30;20570;-85
2021/09/16 07:46:00;;;;;;;5.28;2.10;;;;;;;;;;4739527;30;20039;-81
2021/09/16 07:48:26;;;;;;;5.15;2.50;;;;;;;;;;4756064;30;20031;-85
2021/09/16 07:50:51;;;;;;;4.68;2.15;;;;;;;;;;4788394;29;20488;-85
2021/09/16 07:53:17;;;;;;;4.43;2.30;;;;;;;;;;4780812;30;20821;-84
2021/09/16 07:55:43;;;;;;;5.75;2.10;;;;;;;;;;4759361;30;20071;-85
2021/09/16 07:58:08;;;;;;;9.98;2.20;;;;;;;;;;4739612;30;20042;-85
2021/09/16 08:00:34;;;;;;;4.88;1.90;;;;;;;;;;4756358;30;20487;-85
2021/09/16 08:02:59;;;;;;;5.25;2.10;;;;;;;;;;4773512;30;20416;-85
2021/09/16 08:05:25;;;;;;;4.75;2.10;;;;;;;;;;4755298;30;20043;-84
2021/09/16 08:07:51;;;;;;;4.55;2.40;;;;;;;;;;4754142;30;20044;-82
2021/09/16 08:10:16;;;;;;;5.45;2.03;;;;;;;;;;4772468;30;20488;-82
2021/09/16 08:12:42;;;;;;;5.22;2.00;;;;;;;;;;4764479;29;20523;-82
2021/09/16 08:15:08;;;;;;;5.38;2.30;;;;;;;;;;4772260;30;20035;-82
2021/09/16 08:17:34;;;;;;;9.90;2.25;;;;;;;;;;4774487;30;20031;-82
2021/09/16 08:20:00;;;;;;;6.90;2.85;;;;;;;;;;4749918;30;20080;-84
2021/09/16 08:22:25;;;;;;;5.72;2.47;;;;;;;;;;4775463;30;20035;-85
2021/09/16 08:24:51;;;;;;;6.72;2.00;;;;;;;;;;4761329;30;20050;-85
2021/09/16 08:27:17;;;;;;;4.75;1.70;;;;;;;;;;4767663;30;20043;-83
2021/09/16 08:29:42;;;;;;;4.78;1.90;;;;;;;;;;4758122;30;20097;-82
2021/09/16 08:32:08;;;;;;;4.55;1.88;;;;;;;;;;4791679;29;20482;-84
2021/09/16 08:34:35;;;;;;;5.43;1.85;;;;;;;;;;4763103;30;20039;-82
2021/09/16 08:37:01;;;;;;;3.63;1.45;;;;;;;;;;4760570;30;20043;-84
2021/09/16 08:39:27;;;;;;;8.10;1.80;;;;;;;;;;4757588;30;20042;-84
2021/09/16 08:41:53;;;;;;;4.72;1.60;;;;;;;;;;4790451;30;20042;-84
2021/09/16 08:44:19;;;;;;;4.72;1.45;;;;;;;;;;4774577;30;20027;-83
2021/09/16 08:46:45;;;;;;;4.88;1.63;;;;;;;;;;4790135;30;20042;-82
2021/09/16 08:49:10;;;;;;;4.32;1.60;;;;;;;;;;4772429;30;20028;-82
2021/09/16 08:51:40;;;;;;;5.63;1.50;;;;;;;;;;4790593;29;20750;-82
2021/09/16 08:54:08;;;;;;;5.43;1.70;;;;;;;;;;4790066;30;20108;-85
2021/09/16 08:56:35;;;;;;;4.88;1.40;;;;;;;;;;4773511;30;20061;-83
2021/09/16 08:59:06;;;;;;;26.88;2.65;;;;;;;;;;4787659;30;20046;-83
2021/09/16 09:01:32;;;;;;;5.72;1.80;;;;;;;;;;4789626;29;20046;-85
2021/09/16 09:03:57;;;;;;;5.97;1.67;;;;;;;;;;4777565;29;20034;-84
2021/09/16 09:06:36;;;;;;;5.20;1.60;;;;;;;;;;4777116;30;20031;-82
2021/09/16 09:09:20;;;;;;;4.97;1.50;;;;;;;;;;4770405;29;20436;-82
2021/09/16 09:11:59;;;;;;;6.25;1.45;;;;;;;;;;4784519;29;21328;-85
2021/09/16 09:14:37;;;;;;;3.75;1.10;;;;;;;;;;4787719;30;20034;-82
2021/09/16 09:17:18;;;;;;;7.13;1.80;;;;;;;;;;4785199;30;20043;-83
2021/09/16 09:19:45;;;;;;;5.90;1.60;;;;;;;;;;4785582;29;20031;-85
2021/09/16 09:22:11;;;;;;;4.32;1.40;;;;;;;;;;4774396;30;20031;-82
2021/09/16 09:24:41;;;;;;;4.78;1.50;;;;;;;;;;4788129;30;20043;-83
2021/09/16 09:27:28;;;;;;;4.35;1.33;;;;;;;;;;4773674;30;20074;-83
2021/09/16 09:30:18;;;;;;;7.38;1.52;;;;;;;;;;4789490;29;20027;-82
2021/09/16 09:33:00;;;;;;;2.30;1.15;;;;;;;;;;4790904;30;20042;-84
2021/09/16 09:35:43;;;;;;;3.72;1.40;;;;;;;;;;4772181;30;20500;-85
2021/09/16 09:38:16;;;;;;;;;;;;;;;;;;4790200;29;20028;-83
2021/09/16 09:40:43;;;;;;;5.60;1.50;;;;;;;;;;4791001;29;20339;-85
2021/09/16 09:43:36;;;;;;;4.53;1.60;;;;;;;;;;4773288;30;20039;-83
2021/09/16 09:46:08;;;;;;;4.72;1.90;;;;;;;;;;4788956;29;20039;-84
2021/09/16 09:48:40;;;;;;;5.15;1.20;;;;;;;;;;4774112;30;20395;-82
2021/09/16 09:51:07;;;;;;;5.40;1.80;;;;;;;;;;4788096;30;20126;-84
2021/09/16 09:53:38;;;;;;;4.78;1.58;;;;;;;;;;4794751;29;20035;-84
2021/09/16 09:56:19;;;;;;;4.57;1.40;;;;;;;;;;4789558;29;20063;-84
2021/09/16 09:58:47;;;;;;;6.40;1.77;;;;;;;;;;4772517;30;20476;-84
2021/09/16 10:01:37;;;;;;;3.35;1.30;;;;;;;;;;4761894;29;20381;-85
2021/09/16 10:04:26;;;;;;;4.90;1.55;;;;;;;;;;4774265;29;20137;-82
2021/09/16 10:06:52;;;;;;;6.43;1.50;;;;;;;;;;4790231;30;20500;-82
2021/09/16 10:09:19;;;;;;;3.78;1.30;;;;;;;;;;4770855;30;20043;-83
2021/09/16 10:11:49;;;;;;;3.17;1.25;;;;;;;;;;4759851;29;20050;-82
2021/09/16 10:14:16;;;;;;;4.97;1.42;;;;;;;;;;4777737;29;20183;-81
2021/09/16 10:16:42;;;;;;;5.95;1.50;;;;;;;;;;4792453;29;20027;-83
2021/09/16 10:19:08;;;;;;;4.22;1.30;;;;;;;;;;4795087;29;20106;-81
2021/09/16 10:21:34;;;;;;;4.22;1.27;;;;;;;;;;4785173;30;20031;-82
2021/09/16 10:24:00;;;;;;;5.07;1.23;;;;;;;;;;4769417;30;20031;-81
2021/09/16 10:26:49;;;;;;;4.90;1.20;;;;;;;;;;4776632;29;20039;-81
2021/09/16 10:29:27;;;;;;;7.18;1.45;;;;;;;;;;4794585;29;20035;-82
2021/09/16 10:32:05;;;;;;;5.43;1.27;;;;;;;;;;4774711;30;20061;-82
2021/09/16 10:34:56;;;;;;;3.83;1.30;;;;;;;;;;4775189;30;20047;-82
2021/09/16 10:37:24;;;;;;;4.97;1.45;;;;;;;;;;4776072;30;20031;-82
2021/09/16 10:39:50;;;;;;;3.13;1.20;;;;;;;;;;4755041;29;20058;-82
2021/09/16 10:42:18;;;;;;;4.80;1.20;;;;;;;;;;4793676;29;20031;-82
2021/09/16 10:44:44;;;;;;;5.63;1.13;;;;;;;;;;4778019;30;20035;-82
2021/09/16 10:47:21;;;;;;;3.80;1.10;;;;;;;;;;4788301;29;20042;-82
2021/09/16 10:49:49;;;;;;;3.08;1.10;;;;;;;;;;4787851;29;20043;-81
2021/09/16 10:52:17;;;;;;;4.38;1.00;;;;;;;;;;4779630;29;20503;-81
2021/09/16 10:54:48;;;;;;;3.25;1.10;;;;;;;;;;4769882;30;20035;-80
2021/09/16 10:57:15;;;;;;;4.20;1.15;;;;;;;;;;4777276;29;20028;-84
2021/09/16 10:59:47;;;;;;;4.53;1.38;;;;;;;;;;4793042;29;20050;-80
2021/09/16 11:02:17;;;;;;;5.10;1.30;;;;;;;;;;4789079;29;20039;-84
2021/09/16 11:04:55;;;;;;;4.60;1.40;;;;;;;;;;4776533;29;20077;-80
2021/09/16 11:07:45;;;;;;;3.88;1.27;;;;;;;;;;4789794;29;20563;-81
2021/09/16 11:10:20;;;;;;;4.18;1.27;;;;;;;;;;4777829;29;20863;-84
2021/09/16 11:12:49;;;;;;;2.83;1.30;;;;;;;;;;4770439;30;20035;-80
2021/09/16 11:15:26;;;;;;;5.90;1.30;;;;;;;;;;4778160;30;20036;-81
2021/09/16 11:18:05;;;;;;;3.47;1.10;;;;;;;;;;4769517;30;20404;-84
2021/09/16 11:20:31;;;;;;;5.30;1.30;;;;;;;;;;4773523;30;20027;-81
2021/09/16 11:22:57;;;;;;;4.10;1.38;;;;;;;;;;4785514;29;20108;-83
2021/09/16 11:25:24;;;;;;;2.60;1.05;;;;;;;;;;4760372;30;20036;-83
2021/09/16 11:27:54;;;;;;;4.70;1.10;;;;;;;;;;4768507;30;20134;-82
2021/09/16 11:30:20;;;;;;;3.35;1.20;;;;;;;;;;4770482;29;20122;-81
2021/09/16 11:32:46;;;;;;;2.03;1.10;;;;;;;;;;4768715;30;20047;-84
2021/09/16 11:35:14;;;;;;;5.13;1.50;;;;;;;;;;4770119;30;20713;-83
2021/09/16 11:37:42;;;;;;;2.30;1.20;;;;;;;;;;4799374;29;20110;-83
2021/09/16 11:40:11;;;;;;;2.25;1.05;;;;;;;;;;4789141;30;20118;-82
2021/09/16 11:42:39;;;;;;;3.00;1.15;;;;;;;;;;4783406;29;20035;-84
2021/09/16 11:45:10;;;;;;;3.67;1.13;;;;;;;;;;4794177;29;20034;-82
2021/09/16 11:47:46;;;;;;;3.67;1.42;;;;;;;;;;4784627;30;20047;-82
2021/09/16 11:50:39;;;;;;;4.20;1.50;;;;;;;;;;4802361;29;20039;-84
2021/09/16 11:53:07;;;;;;;3.67;1.33;;;;;;;;;;4783767;29;20042;-84
2021/09/16 11:55:36;;;;;;;5.53;1.58;;;;;;;;;;4784924;29;20059;-82
2021/09/16 11:58:15;;;;;;;4.38;1.38;;;;;;;;;;4794422;29;20023;-84
2021/09/16 12:00:40;;;;;;;4.63;1.30;;;;;;;;;;4790131;29;20027;-82
2021/09/16 12:03:08;;;;;;;2.90;1.40;;;;;;;;;;4787011;30;20141;-83
2021/09/16 12:05:35;;;;;;;3.58;1.13;;;;;;;;;;4770225;30;20035;-83
2021/09/16 12:08:03;;;;;;;4.82;1.40;;;;;;;;;;4772482;30;20039;-83
2021/09/16 12:10:41;;;;;;;4.03;1.35;;;;;;;;;;4793619;29;20590;-84
2021/09/16 12:13:07;;;;;;;2.28;1.08;;;;;;;;;;4788421;29;20488;-82
2021/09/16 12:15:34;;;;;;;3.88;1.55;;;;;;;;;;4776646;30;20061;-83
2021/09/16 12:18:00;;;;;;;3.80;1.00;;;;;;;;;;4757610;30;20042;-81
2021/09/16 12:20:26;;;;;;;2.80;1.10;;;;;;;;;;4774301;30;20764;-81
2021/09/16 12:22:52;;;;;;;2.38;1.20;;;;;;;;;;4764862;29;20097;-81
2021/09/16 12:25:18;;;;;;;3.28;1.25;;;;;;;;;;4774420;30;20046;-84
2021/09/16 12:27:43;;;;;;;2.47;1.20;;;;;;;;;;4754672;30;20046;-81
2021/09/16 12:30:27;;;;;;;3.58;1.30;;;;;;;;;;4793021;29;20030;-84
2021/09/16 12:32:52;;;;;;;2.53;1.17;;;;;;;;;;4754066;30;20039;-84
2021/09/16 12:35:18;;;;;;;3.08;1.20;;;;;;;;;;4788863;29;20552;-84
2021/09/16 12:37:44;;;;;;;4.07;1.30;;;;;;;;;;4787594;29;20179;-84
2021/09/16 12:40:27;;;;;;;3.63;1.20;;;;;;;;;;4784921;29;20048;-82
2021/09/16 12:43:06;;;;;;;4.25;1.40;;;;;;;;;;4769511;30;20777;-82
2021/09/16 12:45:32;;;;;;;3.08;1.10;;;;;;;;;;4767775;30;20094;-84
2021/09/16 12:47:58;;;;;;;2.95;1.50;;;;;;;;;;4758845;30;20043;-84
2021/09/16 12:50:24;;;;;;;2.25;1.20;;;;;;;;;;4790872;29;20731;-84
2021/09/16 12:52:51;;;;;;;4.32;1.50;;;;;;;;;;4772345;30;20040;-83
2021/09/16 12:55:17;;;;;;;3.10;1.40;;;;;;;;;;4771961;30;20063;-84
2021/09/16 12:57:44;;;;;;;3.47;1.50;;;;;;;;;;4773990;29;20189;-83
2021/09/16 13:00:15;;;;;;;4.50;1.35;;;;;;;;;;4785673;29;20055;-83
2021/09/16 13:02:45;;;;;;;3.35;1.75;;;;;;;;;;4783457;29;20745;-81
2021/09/16 13:05:28;;;;;;;3.15;1.40;;;;;;;;;;4756117;30;20092;-84
2021/09/16 13:08:07;;;;;;;3.00;1.40;;;;;;;;;;4789535;29;20035;-84
2021/09/16 13:10:38;;;;;;;2.50;1.50;;;;;;;;;;4785070;29;20043;-84
2021/09/16 13:13:30;;;;;;;2.88;1.42;;;;;;;;;;4776639;29;20114;-83
2021/09/16 13:16:03;;;;;;;2.97;1.55;;;;;;;;;;4779009;29;20034;-82
2021/09/16 13:18:29;;;;;;;2.90;1.35;;;;;;;;;;4758013;29;20031;-85
2021/09/16 13:21:01;;;;;;;6.28;2.03;;;;;;;;;;4769441;30;20031;-82
2021/09/16 13:23:27;;;;;;;2.15;1.38;;;;;;;;;;4785233;30;20080;-84
2021/09/16 13:25:53;;;;;;;2.67;1.50;;;;;;;;;;4786717;29;20104;-84
2021/09/16 13:28:19;;;;;;;6.90;1.77;;;;;;;;;;4770918;29;20789;-84
2021/09/16 13:30:44;;;;;;;3.40;1.63;;;;;;;;;;4768767;30;20555;-82
2021/09/16 13:33:11;;;;;;;2.75;1.70;;;;;;;;;;4768749;29;20766;-82
2021/09/16 13:35:38;;;;;;;4.28;1.90;;;;;;;;;;4769891;30;20051;-82
2021/09/16 13:38:03;;;;;;;3.83;1.90;;;;;;;;;;4785578;29;20092;-82
2021/09/16 13:40:29;;;;;;;4.38;1.70;;;;;;;;;;4784129;29;20114;-82
2021/09/16 13:42:55;;;;;;;5.25;1.80;;;;;;;;;;4787302;29;20039;-82
2021/09/16 13:45:20;;;;;;;2.90;1.80;;;;;;;;;;4784350;30;20069;-82
2021/09/16 13:47:46;;;;;;;3.47;1.83;;;;;;;;;;4782067;29;20073;-84
2021/09/16 13:50:20;;;;;;;4.43;2.13;;;;;;;;;;4794386;29;20023;-84
2021/09/16 13:52:46;;;;;;;4.45;1.92;;;;;;;;;;4790140;29;20030;-84
2021/09/16 13:55:14;;;;;;;3.50;1.90;;;;;;;;;;4785771;30;20063;-84
2021/09/16 13:57:41;;;;;;;4.47;2.05;;;;;;;;;;4789484;29;20123;-83
2021/09/16 14:00:08;;;;;;;4.80;1.92;;;;;;;;;;4770708;30;20118;-81
2021/09/16 14:02:35;;;;;;;3.95;2.00;;;;;;;;;;4773126;30;20042;-83
2021/09/16 14:05:02;;;;;;;4.63;2.38;;;;;;;;;;4755914;30;20074;-81
2021/09/16 14:07:27;;;;;;;3.47;1.83;;;;;;;;;;4771523;30;20043;-81
2021/09/16 14:09:53;;;;;;;2.65;2.00;;;;;;;;;;4788930;29;20043;-81
2021/09/16 14:12:18;;;;;;;3.55;1.95;;;;;;;;;;4778383;29;20035;-81
2021/09/16 14:14:47;;;;;;;4.40;2.30;;;;;;;;;;4775951;30;20071;-83
2021/09/16 14:17:13;;;;;;;3.75;2.17;;;;;;;;;;4771570;29;20036;-81
2021/09/16 14:19:39;;;;;;;4.07;2.40;;;;;;;;;;4775302;29;20110;-83
2021/09/16 14:22:06;;;;;;;4.95;2.42;;;;;;;;;;4769536;29;20089;-83
2021/09/16 14:24:31;;;;;;;5.07;2.60;;;;;;;;;;4768254;30;20066;-80
2021/09/16 14:26:57;;;;;;;3.33;2.50;;;;;;;;;;4773897;30;20101;-83
2021/09/16 14:29:22;;;;;;;5.60;2.65;;;;;;;;;;4770815;29;20044;-80
2021/09/16 14:31:48;;;;;;;6.57;2.50;;;;;;;;;;4770628;29;20038;-83
2021/09/16 14:34:14;;;;;;;6.47;2.50;;;;;;;;;;4781836;30;20120;-80
2021/09/16 14:36:43;;;;;;;5.25;2.55;;;;;;;;;;4771735;29;20047;-83
2021/09/16 14:39:12;;;;;;;4.80;2.20;;;;;;;;;;4789655;29;20040;-81
2021/09/16 14:41:38;;;;;;;4.38;2.40;;;;;;;;;;4767249;29;20067;-83
2021/09/16 14:44:04;;;;;;;3.60;2.50;;;;;;;;;;4781338;29;20084;-80
2021/09/16 14:46:29;;;;;;;4.00;2.45;;;;;;;;;;4755046;30;20468;-83